Time;durP1;ratioP1;P1;durP2;ratioP2;P2;SDS_P1;SDS_P2;PMS_P1;PMS_P2;Temp;Humidity;BMP_temperature;BMP_pressure;BME280_temperature;BME280_humidity;BME280_pressure;Samples;Min_cycle;Max_cycle;Signal;HPM_P1;HPM_P2
2022/05/04 00:01:18;;;;;;;8.82;7.20;;;10.00;99.90;;;;;;5020821;28;20376;-84
2022/05/04 00:03:44;;;;;;;9.18;7.40;;;9.90;99.90;;;;;;5062333;28;20113;-84
2022/05/04 00:06:10;;;;;;;10.88;7.35;;;9.90;99.90;;;;;;5086573;28;20058;-84
2022/05/04 00:08:39;;;;;;;10.30;7.60;;;9.90;99.90;;;;;;5039905;28;20063;-84
2022/05/04 00:11:06;;;;;;;8.95;7.25;;;9.90;99.90;;;;;;5054956;28;20036;-84
2022/05/04 00:13:33;;;;;;;9.68;7.20;;;9.80;99.90;;;;;;5070319;28;20486;-85
2022/05/04 00:16:02;;;;;;;8.90;7.38;;;9.80;99.90;;;;;;5055070;28;20046;-84
2022/05/04 00:18:29;;;;;;;8.60;6.88;;;9.70;99.90;;;;;;5088303;28;20024;-84
2022/05/04 00:20:55;;;;;;;8.95;6.43;;;9.70;99.90;;;;;;5072048;28;20089;-84
2022/05/04 00:23:21;;;;;;;8.80;7.15;;;9.80;99.90;;;;;;5055599;28;20024;-84
2022/05/04 00:25:47;;;;;;;8.98;7.38;;;9.90;99.90;;;;;;5054859;28;20028;-84
2022/05/04 00:28:13;;;;;;;8.90;7.53;;;9.90;99.90;;;;;;5054928;28;20035;-84
2022/05/04 00:30:39;;;;;;;10.18;7.57;;;9.90;99.90;;;;;;5071882;28;20028;-84
2022/05/04 00:33:05;;;;;;;11.88;7.55;;;9.90;99.90;;;;;;5070481;28;20105;-83
2022/05/04 00:35:30;;;;;;;10.00;6.65;;;9.90;99.90;;;;;;5053251;28;20036;-84
2022/05/04 00:37:56;;;;;;;10.73;7.18;;;9.90;99.90;;;;;;5053411;28;20048;-83
2022/05/04 00:40:22;;;;;;;12.35;7.32;;;9.80;99.90;;;;;;5052319;28;20043;-84
2022/05/04 00:42:48;;;;;;;14.77;7.47;;;9.80;99.90;;;;;;5063595;28;20027;-83
2022/05/04 00:45:13;;;;;;;10.48;7.22;;;9.70;99.90;;;;;;5071067;28;20059;-84
2022/05/04 00:47:39;;;;;;;8.52;6.53;;;9.70;99.90;;;;;;5070954;28;20038;-84
2022/05/04 00:50:07;;;;;;;9.30;7.63;;;9.60;99.90;;;;;;5055008;28;20036;-84
2022/05/04 00:52:36;;;;;;;9.85;7.50;;;9.60;99.90;;;;;;5055364;28;20040;-84
2022/05/04 00:55:05;;;;;;;11.48;7.72;;;9.50;99.90;;;;;;5071720;28;20032;-84
2022/05/04 01:00:19;;;;;;;10.18;7.45;;;9.40;99.90;;;;;;5064305;28;20028;-84
2022/05/04 01:02:45;;;;;;;10.32;7.15;;;9.40;99.90;;;;;;5049674;28;20059;-84
2022/05/04 01:05:11;;;;;;;9.23;7.32;;;9.40;99.90;;;;;;5051228;28;20029;-84
2022/05/04 01:07:39;;;;;;;10.02;6.70;;;9.40;99.90;;;;;;5054174;28;20044;-84
2022/05/04 01:10:05;;;;;;;8.57;6.32;;;9.40;99.90;;;;;;5035219;28;20526;-84
2022/05/04 01:12:35;;;;;;;8.20;6.55;;;9.40;99.90;;;;;;5018620;28;20037;-84
2022/05/04 01:15:02;;;;;;;8.45;6.78;;;9.30;99.90;;;;;;5051857;28;20045;-84
2022/05/04 01:17:28;;;;;;;8.18;7.05;;;9.30;99.90;;;;;;5058411;28;20111;-84
2022/05/04 01:19:57;;;;;;;9.02;7.07;;;9.30;99.90;;;;;;5059188;28;20599;-84
2022/05/04 01:22:24;;;;;;;8.75;7.10;;;9.30;99.90;;;;;;5055847;28;20036;-83
2022/05/04 01:24:49;;;;;;;7.50;6.70;;;9.20;99.90;;;;;;5088144;28;20046;-83
2022/05/04 01:27:15;;;;;;;9.98;7.38;;;9.20;99.90;;;;;;5070818;28;20036;-84
2022/05/04 01:29:41;;;;;;;8.40;6.63;;;9.30;99.90;;;;;;5060531;28;20075;-84
2022/05/04 01:32:07;;;;;;;9.85;7.07;;;9.30;99.90;;;;;;5058030;28;20031;-84
2022/05/04 01:34:33;;;;;;;10.82;8.32;;;9.30;99.90;;;;;;5054581;28;20032;-84
2022/05/04 01:36:58;;;;;;;9.77;7.15;;;9.30;99.90;;;;;;5075248;28;20036;-84
2022/05/04 01:39:24;;;;;;;10.00;8.00;;;9.30;99.90;;;;;;5062111;28;20036;-83
2022/05/04 01:42:13;;;;;;;10.93;7.70;;;9.30;99.90;;;;;;5063663;28;20058;-84
2022/05/04 01:44:40;;;;;;;11.15;7.82;;;9.20;99.90;;;;;;5040991;28;20483;-84
2022/05/04 01:47:07;;;;;;;12.70;8.80;;;9.10;99.90;;;;;;5067214;28;20510;-83
2022/05/04 01:49:33;;;;;;;11.63;7.50;;;9.00;99.90;;;;;;5053124;28;20491;-84
2022/05/04 01:51:59;;;;;;;10.82;7.95;;;9.00;99.90;;;;;;5068993;28;20032;-84
2022/05/04 01:54:26;;;;;;;11.85;8.73;;;8.90;99.90;;;;;;5054639;28;20151;-84
2022/05/04 01:56:52;;;;;;;11.35;8.05;;;8.90;99.90;;;;;;5076215;28;20039;-84
2022/05/04 01:59:18;;;;;;;11.35;8.73;;;8.90;99.90;;;;;;5067199;28;20074;-84
2022/05/04 02:01:46;;;;;;;13.48;7.85;;;8.90;99.90;;;;;;5051426;28;20033;-84
2022/05/04 02:04:13;;;;;;;10.70;8.00;;;8.90;99.90;;;;;;5056658;28;20055;-84
2022/05/04 02:06:39;;;;;;;12.57;8.38;;;8.90;99.90;;;;;;5076497;28;20038;-84
2022/05/04 02:09:06;;;;;;;9.23;7.57;;;8.90;99.90;;;;;;5046036;28;20040;-84
2022/05/04 02:11:33;;;;;;;12.32;8.73;;;8.80;99.90;;;;;;5077002;28;20064;-84
2022/05/04 02:13:59;;;;;;;17.25;9.88;;;8.80;99.90;;;;;;5063730;28;20036;-84
2022/05/04 02:16:26;;;;;;;11.02;8.50;;;8.80;99.90;;;;;;5073962;28;20051;-83
2022/05/04 02:18:52;;;;;;;14.50;9.38;;;8.80;99.90;;;;;;5061367;28;20033;-84
2022/05/04 02:21:17;;;;;;;11.65;8.55;;;8.70;99.90;;;;;;5067769;28;20119;-84
2022/05/04 02:23:43;;;;;;;11.32;8.60;;;8.70;99.90;;;;;;5041296;28;20039;-84
2022/05/04 02:26:09;;;;;;;11.57;8.85;;;8.70;99.90;;;;;;5073964;28;20032;-84
2022/05/04 02:28:35;;;;;;;13.57;8.48;;;8.60;99.90;;;;;;5067522;28;20044;-84
2022/05/04 02:31:01;;;;;;;10.88;8.63;;;8.60;99.90;;;;;;5021116;28;20085;-84
2022/05/04 02:33:26;;;;;;;12.80;8.68;;;8.60;99.90;;;;;;5054314;28;20541;-84
2022/05/04 02:38:36;;;;;;;11.73;8.73;;;8.60;99.90;;;;;;5067109;28;20032;-84
2022/05/04 02:41:02;;;;;;;13.35;9.63;;;8.50;99.90;;;;;;5074182;28;20085;-84
2022/05/04 02:43:28;;;;;;;11.13;7.95;;;8.50;99.90;;;;;;5074407;28;20123;-84
2022/05/04 02:45:55;;;;;;;13.07;8.93;;;8.50;99.90;;;;;;5056596;28;20051;-84
2022/05/04 02:48:21;;;;;;;13.98;9.45;;;8.40;99.90;;;;;;5091669;28;20441;-84
2022/05/04 02:50:47;;;;;;;12.27;9.40;;;8.40;99.90;;;;;;5090964;28;20032;-84
2022/05/04 02:53:13;;;;;;;12.68;9.23;;;8.40;99.90;;;;;;5074134;28;20098;-84
2022/05/04 02:55:38;;;;;;;11.52;8.85;;;8.40;99.90;;;;;;5073274;28;20036;-84
2022/05/04 02:58:04;;;;;;;11.98;8.07;;;8.40;99.90;;;;;;5087100;28;20103;-84
2022/05/04 03:00:30;;;;;;;14.98;9.48;;;8.40;99.90;;;;;;5057386;28;20028;-84
2022/05/04 03:02:56;;;;;;;11.85;8.90;;;8.40;99.90;;;;;;5073767;28;20034;-84
2022/05/04 03:05:23;;;;;;;11.63;9.18;;;8.30;99.90;;;;;;5089427;28;20036;-84
2022/05/04 03:07:49;;;;;;;12.70;9.60;;;8.30;99.90;;;;;;5090387;28;20042;-84
2022/05/04 03:10:15;;;;;;;13.50;9.60;;;8.30;99.90;;;;;;5056225;28;20040;-84
2022/05/04 03:12:41;;;;;;;13.27;10.10;;;8.20;99.90;;;;;;5067592;28;20040;-84
2022/05/04 03:15:07;;;;;;;14.23;9.88;;;8.10;99.90;;;;;;5073583;28;20047;-84
2022/05/04 03:17:34;;;;;;;16.65;10.55;;;8.10;99.90;;;;;;5061429;28;20476;-84
2022/05/04 03:20:00;;;;;;;12.95;9.57;;;8.10;99.90;;;;;;5053442;28;20498;-84
2022/05/04 03:22:27;;;;;;;13.60;10.30;;;8.10;99.90;;;;;;5070054;28;20380;-84
2022/05/04 03:24:53;;;;;;;11.88;9.60;;;8.10;99.90;;;;;;5067672;28;20029;-84
2022/05/04 03:27:19;;;;;;;16.73;10.27;;;8.10;99.90;;;;;;5068221;28;20043;-84
2022/05/04 03:29:45;;;;;;;12.82;9.85;;;8.10;99.90;;;;;;5071574;28;20032;-84
2022/05/04 03:32:11;;;;;;;13.93;10.10;;;8.20;99.90;;;;;;5056347;28;20039;-85
2022/05/04 03:34:38;;;;;;;14.35;10.73;;;8.10;99.90;;;;;;5076899;28;20441;-83
2022/05/04 03:37:04;;;;;;;14.15;9.73;;;8.20;99.90;;;;;;5079631;28;20033;-84
2022/05/04 03:39:30;;;;;;;13.15;9.73;;;8.20;99.90;;;;;;5052748;28;20086;-84
2022/05/04 03:41:56;;;;;;;14.65;10.48;;;8.20;99.90;;;;;;5040436;28;20028;-84
2022/05/04 03:44:22;;;;;;;14.02;10.02;;;8.20;99.90;;;;;;5070037;28;20024;-84
2022/05/04 03:46:52;;;;;;;14.85;10.68;;;8.20;99.90;;;;;;5042510;28;20028;-84
2022/05/04 03:49:20;;;;;;;16.27;9.95;;;8.10;99.90;;;;;;5069053;28;20037;-84
2022/05/04 03:51:46;;;;;;;15.68;9.98;;;8.10;99.90;;;;;;5076870;28;20055;-84
2022/05/04 03:54:12;;;;;;;15.23;9.85;;;8.10;99.90;;;;;;5090203;28;20028;-84
2022/05/04 03:56:39;;;;;;;13.30;9.32;;;8.10;99.90;;;;;;5043044;28;20056;-85
2022/05/04 03:59:05;;;;;;;13.18;9.32;;;8.20;99.90;;;;;;5069783;28;20851;-84
2022/05/04 04:01:32;;;;;;;13.30;9.63;;;8.20;99.90;;;;;;5039710;28;20059;-84
2022/05/04 04:03:57;;;;;;;13.45;9.82;;;8.20;99.90;;;;;;5089337;28;20032;-85
2022/05/04 04:06:23;;;;;;;14.95;11.35;;;8.20;99.90;;;;;;5058058;28;20444;-85
2022/05/04 04:08:50;;;;;;;12.68;9.75;;;8.20;99.90;;;;;;5052038;28;20040;-84
2022/05/04 04:11:16;;;;;;;16.33;10.55;;;8.20;99.90;;;;;;5052202;28;20134;-84
2022/05/04 04:13:41;;;;;;;12.75;9.85;;;8.30;99.90;;;;;;5060883;28;20036;-84
2022/05/04 04:16:07;;;;;;;13.90;10.13;;;8.30;99.90;;;;;;5050523;28;20050;-84
2022/05/04 04:18:33;;;;;;;12.75;9.50;;;8.30;99.90;;;;;;5066472;28;20032;-84
2022/05/04 04:23:43;;;;;;;15.35;10.48;;;8.40;99.90;;;;;;5040881;28;20032;-85
2022/05/04 04:26:09;;;;;;;17.17;10.38;;;8.50;99.90;;;;;;5018727;28;20037;-84
2022/05/04 04:28:38;;;;;;;13.82;9.75;;;8.50;99.90;;;;;;5051797;28;20036;-84
2022/05/04 04:31:04;;;;;;;10.55;8.18;;;8.60;99.90;;;;;;5069021;28;20028;-84
2022/05/04 04:33:30;;;;;;;8.82;7.30;;;8.60;99.90;;;;;;5068471;28;20024;-85
2022/05/04 04:35:57;;;;;;;10.05;7.50;;;8.70;99.90;;;;;;5051672;28;20029;-85
2022/05/04 04:38:22;;;;;;;12.02;8.88;;;8.80;99.90;;;;;;5070738;28;20040;-84
2022/05/04 04:40:48;;;;;;;12.27;9.05;;;8.90;99.90;;;;;;5072022;28;20039;-84
2022/05/04 04:43:15;;;;;;;12.75;9.20;;;8.90;99.90;;;;;;5056205;28;20099;-85
2022/05/04 04:45:45;;;;;;;12.10;9.00;;;8.90;99.90;;;;;;5088534;28;20482;-85
2022/05/04 04:48:11;;;;;;;12.43;8.75;;;9.00;99.90;;;;;;5068734;28;20028;-84
2022/05/04 04:50:37;;;;;;;13.75;9.25;;;9.00;99.90;;;;;;5069305;28;20039;-84
2022/05/04 04:53:03;;;;;;;12.40;8.82;;;9.00;99.90;;;;;;5047446;28;20036;-85
2022/05/04 04:55:29;;;;;;;11.25;8.95;;;9.10;99.90;;;;;;5071225;28;20093;-84
2022/05/04 04:57:55;;;;;;;11.73;8.90;;;9.10;99.90;;;;;;5071608;28;20066;-84
2022/05/04 05:00:21;;;;;;;11.23;8.85;;;9.10;99.90;;;;;;5068349;28;20039;-84
2022/05/04 05:02:47;;;;;;;11.60;9.13;;;9.20;99.90;;;;;;5069769;28;20028;-84
2022/05/04 05:05:13;;;;;;;10.95;8.00;;;9.30;99.90;;;;;;5051888;28;20020;-84
2022/05/04 05:07:39;;;;;;;11.82;8.15;;;9.40;99.90;;;;;;5050970;28;20059;-84
2022/05/04 05:10:06;;;;;;;12.90;9.60;;;9.50;99.90;;;;;;5059577;28;20051;-84
2022/05/04 05:12:32;;;;;;;13.45;9.05;;;9.50;99.90;;;;;;5072034;28;20069;-85
2022/05/04 05:17:43;;;;;;;15.57;9.70;;;9.70;99.90;;;;;;5070088;28;20201;-84
2022/05/04 05:20:09;;;;;;;13.68;9.85;;;9.80;99.90;;;;;;5059839;28;20059;-84
2022/05/04 05:22:35;;;;;;;13.25;9.90;;;9.90;99.90;;;;;;5090112;28;20037;-84
2022/05/04 05:25:01;;;;;;;14.95;10.55;;;10.10;99.90;;;;;;5071421;28;20401;-84
2022/05/04 05:27:30;;;;;;;13.43;9.13;;;10.20;99.90;;;;;;5053416;28;20090;-85
2022/05/04 05:29:56;;;;;;;14.30;10.07;;;10.40;99.90;;;;;;5051585;28;20032;-85
2022/05/04 05:32:22;;;;;;;14.25;9.70;;;10.50;99.90;;;;;;5066154;28;20073;-84
2022/05/04 05:34:47;;;;;;;13.75;9.70;;;10.60;99.90;;;;;;5067888;28;20040;-84
2022/05/04 05:37:13;;;;;;;12.98;8.50;;;10.80;99.90;;;;;;5038589;28;20040;-84
2022/05/04 05:39:43;;;;;;;9.90;7.75;;;11.10;99.90;;;;;;5054340;28;20028;-85
2022/05/04 05:42:09;;;;;;;9.00;6.97;;;11.40;99.90;;;;;;5071628;28;20028;-85
2022/05/04 05:44:35;;;;;;;9.48;6.95;;;11.70;99.90;;;;;;5053924;28;20066;-85
2022/05/04 05:47:01;;;;;;;13.23;8.00;;;12.10;99.90;;;;;;5050622;28;20467;-85
2022/05/04 05:49:28;;;;;;;9.90;7.57;;;12.50;99.90;;;;;;5052804;28;20074;-84
2022/05/04 05:51:54;;;;;;;11.35;7.10;;;12.80;99.90;;;;;;5071043;28;20029;-85
2022/05/04 05:54:20;;;;;;;10.60;7.70;;;13.30;99.90;;;;;;5038455;28;20040;-85
2022/05/04 05:56:46;;;;;;;9.38;7.47;;;13.60;99.90;;;;;;5037911;28;20028;-85
2022/05/04 05:59:14;;;;;;;10.38;8.27;;;14.00;99.90;;;;;;5048426;28;20028;-84
2022/05/04 06:01:41;;;;;;;10.55;8.00;;;14.40;99.90;;;;;;5075193;28;20044;-85
2022/05/04 06:04:07;;;;;;;11.60;8.52;;;14.70;99.90;;;;;;5058520;28;20440;-85
2022/05/04 06:06:33;;;;;;;12.05;8.82;;;15.10;99.90;;;;;;5057829;28;20092;-84
2022/05/04 06:08:59;;;;;;;11.00;8.07;;;15.50;99.90;;;;;;5041067;28;20032;-85
2022/05/04 06:11:25;;;;;;;11.52;8.77;;;15.80;99.90;;;;;;5058261;28;20047;-85
2022/05/04 06:13:52;;;;;;;11.98;8.95;;;16.20;99.90;;;;;;5040525;28;20036;-85
2022/05/04 06:16:18;;;;;;;10.55;8.07;;;16.50;99.90;;;;;;5060951;28;20024;-85
2022/05/04 06:18:44;;;;;;;10.90;7.63;;;16.90;99.90;;;;;;5051363;28;20033;-85
2022/05/04 06:21:10;;;;;;;11.02;8.60;;;17.30;99.90;;;;;;5062311;28;20040;-85
2022/05/04 06:23:36;;;;;;;10.30;7.90;;;17.60;99.90;;;;;;5037981;28;20028;-84
2022/05/04 06:26:01;;;;;;;13.48;9.60;;;18.00;99.90;;;;;;5049722;28;20127;-84
2022/05/04 06:28:27;;;;;;;11.55;8.35;;;18.30;98.00;;;;;;5089350;28;20096;-84
2022/05/04 06:36:21;;;;;;;11.88;8.05;;;18.20;93.10;;;;;;5058491;28;20024;-84
2022/05/04 06:38:47;;;;;;;12.60;8.88;;;17.90;93.90;;;;;;5036608;28;20573;-85
2022/05/04 06:41:14;;;;;;;11.15;7.30;;;18.10;94.70;;;;;;5077726;28;20090;-85
2022/05/04 06:43:40;;;;;;;11.05;9.02;;;18.50;93.70;;;;;;5064999;28;20024;-85
2022/05/04 06:46:06;;;;;;;10.95;8.50;;;18.60;91.80;;;;;;5039605;28;20040;-85
2022/05/04 06:48:32;;;;;;;12.18;8.50;;;18.50;92.70;;;;;;5069993;28;20040;-84
2022/05/04 06:50:58;;;;;;;12.25;8.93;;;18.50;90.70;;;;;;5073746;28;20042;-85
2022/05/04 06:53:23;;;;;;;12.00;9.32;;;18.60;90.80;;;;;;5057113;28;20115;-85
2022/05/04 06:55:49;;;;;;;16.02;8.68;;;18.40;90.60;;;;;;5056543;28;20467;-84
2022/05/04 06:58:15;;;;;;;14.68;8.70;;;18.50;92.20;;;;;;5056374;28;20475;-85
2022/05/04 07:00:41;;;;;;;11.13;8.57;;;18.50;91.00;;;;;;5056271;28;20043;-85
2022/05/04 07:03:06;;;;;;;10.45;8.13;;;18.80;90.80;;;;;;5054163;28;20036;-84
2022/05/04 07:05:32;;;;;;;10.13;8.73;;;18.90;91.00;;;;;;5056042;28;20032;-84
2022/05/04 07:07:58;;;;;;;12.40;9.07;;;18.80;90.20;;;;;;5051873;28;20040;-85
2022/05/04 07:10:24;;;;;;;9.90;8.77;;;18.80;89.60;;;;;;5021262;28;20074;-84
2022/05/04 07:12:50;;;;;;;11.98;8.93;;;18.50;89.50;;;;;;5038810;28;20038;-84
2022/05/04 07:15:16;;;;;;;11.27;8.80;;;18.30;89.50;;;;;;5036560;28;20063;-84
2022/05/04 07:17:43;;;;;;;10.38;8.05;;;18.20;88.90;;;;;;5088355;28;20396;-84
2022/05/04 07:20:09;;;;;;;11.77;8.48;;;18.10;90.80;;;;;;5073481;28;20585;-84
2022/05/04 07:22:36;;;;;;;11.38;8.50;;;18.10;89.50;;;;;;5073241;28;20127;-84
2022/05/04 07:25:02;;;;;;;12.32;9.18;;;18.20;90.40;;;;;;5054522;28;20032;-84
2022/05/04 07:27:28;;;;;;;12.10;8.52;;;18.60;91.70;;;;;;5073959;28;20123;-84
2022/05/04 07:29:53;;;;;;;14.32;8.65;;;19.00;91.60;;;;;;5067596;28;20114;-84
2022/05/04 07:32:19;;;;;;;12.23;8.13;;;19.20;88.60;;;;;;5085349;28;20020;-85
2022/05/04 07:34:45;;;;;;;9.00;7.13;;;19.40;85.30;;;;;;5042858;28;20036;-85
2022/05/04 07:37:11;;;;;;;9.45;7.30;;;19.10;88.70;;;;;;5062838;28;20070;-85
2022/05/04 07:42:24;;;;;;;11.00;7.55;;;18.90;90.20;;;;;;5071935;28;20028;-84
2022/05/04 07:44:51;;;;;;;8.25;7.30;;;18.70;90.00;;;;;;5061811;28;20048;-84
2022/05/04 07:47:18;;;;;;;9.27;7.25;;;18.80;89.60;;;;;;5063950;28;20035;-84
2022/05/04 07:49:44;;;;;;;11.05;7.68;;;18.70;89.30;;;;;;5052956;28;20043;-84
2022/05/04 07:52:10;;;;;;;11.55;7.63;;;18.60;90.50;;;;;;5031912;28;20570;-84
2022/05/04 07:54:35;;;;;;;9.70;7.65;;;18.60;90.10;;;;;;5049803;28;20116;-84
2022/05/04 07:57:01;;;;;;;8.43;6.78;;;18.60;91.20;;;;;;5031729;28;20613;-84
2022/05/04 07:59:27;;;;;;;9.30;6.57;;;18.50;90.30;;;;;;5068509;28;20115;-85
2022/05/04 08:04:37;;;;;;;8.63;6.15;;;18.70;91.00;;;;;;5054014;28;20029;-84
2022/05/04 08:07:04;;;;;;;7.35;6.15;;;18.90;90.40;;;;;;5062092;28;20093;-84
2022/05/04 08:09:34;;;;;;;7.43;5.90;;;19.10;90.50;;;;;;5020680;28;20032;-84
2022/05/04 08:12:00;;;;;;;7.28;5.68;;;19.30;87.80;;;;;;5066078;28;20033;-84
2022/05/04 08:14:26;;;;;;;8.10;6.30;;;19.40;89.30;;;;;;5048760;28;20590;-84
2022/05/04 08:16:51;;;;;;;7.50;6.10;;;19.40;88.50;;;;;;5030238;28;20021;-84
2022/05/04 08:19:17;;;;;;;6.82;4.85;;;19.50;88.90;;;;;;5031987;28;20510;-84
2022/05/04 08:21:43;;;;;;;7.85;5.28;;;19.10;85.90;;;;;;5057440;28;20827;-85
2022/05/04 08:24:08;;;;;;;6.50;5.75;;;19.10;90.20;;;;;;5025312;28;20060;-85
2022/05/04 08:26:34;;;;;;;6.95;5.47;;;18.90;90.60;;;;;;5058827;28;20066;-84
2022/05/04 08:29:00;;;;;;;5.95;5.32;;;18.80;89.30;;;;;;5033991;28;20031;-84
2022/05/04 08:31:27;;;;;;;6.95;5.32;;;18.70;91.10;;;;;;5032150;28;20044;-84
2022/05/04 08:33:54;;;;;;;7.82;4.97;;;18.70;91.00;;;;;;5040008;28;20028;-84
2022/05/04 08:36:19;;;;;;;5.28;4.63;;;18.70;90.50;;;;;;5055029;28;20127;-85
2022/05/04 08:38:45;;;;;;;5.53;5.03;;;18.70;90.60;;;;;;5031789;28;20186;-86
2022/05/04 08:41:11;;;;;;;5.28;4.32;;;18.70;91.90;;;;;;5031330;28;20032;-84
2022/05/04 08:43:39;;;;;;;4.60;4.03;;;18.80;92.10;;;;;;5065156;28;20040;-84
2022/05/04 08:46:05;;;;;;;5.13;4.13;;;18.80;90.80;;;;;;5050929;28;20207;-85
2022/05/04 08:48:32;;;;;;;5.32;4.20;;;18.90;89.40;;;;;;5032128;28;20036;-84
2022/05/04 08:51:04;;;;;;;5.70;4.97;;;18.90;90.10;;;;;;5056494;28;20720;-84
2022/05/04 08:53:31;;;;;;;6.03;4.80;;;18.90;89.30;;;;;;5085839;28;20032;-84
2022/05/04 08:55:57;;;;;;;7.18;3.92;;;18.90;91.40;;;;;;5067524;28;20051;-85
2022/05/04 08:58:23;;;;;;;4.10;3.70;;;18.80;89.90;;;;;;5067686;28;20028;-84
2022/05/04 09:00:49;;;;;;;5.50;4.30;;;18.80;89.10;;;;;;5079222;28;20024;-85
2022/05/04 09:03:14;;;;;;;4.85;3.60;;;18.80;88.80;;;;;;5086569;28;20184;-85
2022/05/04 09:05:46;;;;;;;4.03;3.72;;;18.80;88.50;;;;;;5030247;28;20035;-85
2022/05/04 09:08:12;;;;;;;4.10;3.63;;;18.80;87.70;;;;;;5068641;28;20518;-84
2022/05/04 09:10:39;;;;;;;5.53;4.95;;;18.70;90.50;;;;;;5069859;28;20120;-84
2022/05/04 09:13:06;;;;;;;5.05;4.13;;;18.60;90.40;;;;;;5051810;28;20078;-85
2022/05/04 09:15:34;;;;;;;6.85;4.03;;;18.70;89.70;;;;;;5054036;28;20085;-84
2022/05/04 09:18:01;;;;;;;6.75;4.25;;;18.80;88.10;;;;;;5087994;28;20031;-85
2022/05/04 09:20:56;;;;;;;6.43;4.32;;;18.80;91.20;;;;;;5049522;28;20035;-84
2022/05/04 09:23:22;;;;;;;5.18;3.97;;;18.70;90.60;;;;;;5061943;28;20028;-86
2022/05/04 09:25:53;;;;;;;4.90;4.18;;;18.80;91.00;;;;;;5066616;28;20513;-85
2022/05/04 09:28:20;;;;;;;4.50;4.03;;;18.70;92.10;;;;;;5064060;28;20161;-85
2022/05/04 09:31:00;;;;;;;5.90;4.07;;;18.90;89.40;;;;;;5083667;28;20088;-84
2022/05/04 09:33:31;;;;;;;4.40;4.00;;;18.90;90.30;;;;;;5062156;28;20045;-85
2022/05/04 09:35:59;;;;;;;4.90;3.95;;;18.80;87.30;;;;;;5066530;28;20082;-85
2022/05/04 09:46:49;;;;;;;;;;;19.10;86.70;;;;;;5081614;28;20040;-83
2022/05/04 09:49:18;;;;;;;4.78;3.67;;;19.10;86.40;;;;;;5071525;28;20383;-85
2022/05/04 09:51:52;;;;;;;4.82;4.25;;;19.10;87.80;;;;;;5083790;28;20077;-85
2022/05/04 09:54:21;;;;;;;5.53;4.30;;;19.00;87.00;;;;;;5057620;28;20039;-84
2022/05/04 09:56:58;;;;;;;6.20;5.60;;;19.20;90.90;;;;;;5072574;28;20027;-85
2022/05/04 09:59:29;;;;;;;4.55;3.90;;;19.40;89.10;;;;;;5078964;28;20404;-87
2022/05/04 10:01:56;;;;;;;6.22;4.22;;;19.50;87.10;;;;;;5058914;28;20028;-85
2022/05/04 10:04:25;;;;;;;6.30;3.95;;;19.50;85.40;;;;;;5091938;28;20032;-86
2022/05/04 10:06:52;;;;;;;6.15;4.15;;;19.40;87.20;;;;;;5058143;28;20036;-86
2022/05/04 10:09:19;;;;;;;4.53;3.95;;;19.40;90.40;;;;;;5057511;28;20028;-86
2022/05/04 10:11:46;;;;;;;3.80;3.25;;;19.40;88.00;;;;;;5091420;28;20135;-84
2022/05/04 10:14:15;;;;;;;5.28;3.40;;;19.40;82.10;;;;;;5074613;28;20119;-87
2022/05/04 10:17:03;;;;;;;4.00;3.50;;;19.50;82.10;;;;;;5073644;28;20034;-85
2022/05/04 10:19:43;;;;;;;3.28;2.80;;;19.50;84.40;;;;;;5091629;28;20561;-85
2022/05/04 10:22:14;;;;;;;4.95;3.08;;;19.50;80.70;;;;;;5087785;28;20056;-85
2022/05/04 10:24:42;;;;;;;3.28;2.80;;;19.50;78.80;;;;;;5071491;28;20039;-85
2022/05/04 10:27:15;;;;;;;2.83;2.63;;;19.60;80.60;;;;;;5073094;28;20111;-85
2022/05/04 10:32:37;;;;;;;4.70;3.83;;;19.60;80.30;;;;;;5059800;28;20060;-85
2022/05/04 10:35:20;;;;;;;6.55;3.72;;;19.70;85.10;;;;;;5090154;28;20166;-86
2022/05/04 10:37:58;;;;;;;3.40;3.10;;;19.70;80.50;;;;;;5057720;28;20146;-85
2022/05/04 10:40:31;;;;;;;4.07;3.25;;;19.60;78.60;;;;;;5071056;28;20368;-86
2022/05/04 10:43:02;;;;;;;5.82;3.33;;;19.70;84.10;;;;;;5087512;28;20028;-86
2022/05/04 10:45:31;;;;;;;8.27;4.13;;;19.70;84.00;;;;;;5087160;28;20025;-84
2022/05/04 10:48:19;;;;;;;4.55;4.15;;;19.80;79.80;;;;;;5073610;28;20039;-86
2022/05/04 10:51:12;;;;;;;4.20;3.63;;;19.70;87.40;;;;;;5081717;28;20059;-86
2022/05/04 10:53:41;;;;;;;3.55;3.20;;;19.70;79.40;;;;;;5072064;28;20036;-85
2022/05/04 10:56:08;;;;;;;4.15;3.25;;;19.70;76.10;;;;;;5070318;28;20036;-85
2022/05/04 10:59:01;;;;;;;3.58;3.28;;;19.50;76.80;;;;;;5059005;28;20020;-85
2022/05/04 11:01:32;;;;;;;6.38;4.65;;;19.40;77.70;;;;;;5059632;28;20024;-86
2022/05/04 11:04:26;;;;;;;5.00;4.03;;;19.30;81.20;;;;;;5073843;28;20081;-86
2022/05/04 11:07:06;;;;;;;6.00;4.20;;;19.20;79.70;;;;;;5072573;28;20131;-85
2022/05/04 11:09:37;;;;;;;3.53;3.22;;;19.00;79.90;;;;;;5073310;28;20032;-85
2022/05/04 11:12:08;;;;;;;5.45;4.13;;;19.00;79.30;;;;;;5041676;28;20040;-85
2022/05/04 11:14:34;;;;;;;4.43;4.00;;;19.10;79.40;;;;;;5022786;28;20117;-86
2022/05/04 11:17:02;;;;;;;5.20;3.63;;;19.10;81.50;;;;;;5059345;28;20482;-85
2022/05/04 11:19:30;;;;;;;3.95;3.10;;;19.20;80.00;;;;;;5089826;28;20024;-86
2022/05/04 11:21:57;;;;;;;5.63;4.20;;;19.30;80.90;;;;;;5056698;28;20068;-85
2022/05/04 11:24:27;;;;;;;4.93;3.60;;;19.50;80.40;;;;;;5073352;28;20024;-85
2022/05/04 11:26:53;;;;;;;3.47;2.85;;;19.50;81.00;;;;;;5089497;28;20462;-86
2022/05/04 11:29:20;;;;;;;3.15;2.83;;;19.50;76.70;;;;;;5089400;28;20043;-85
2022/05/04 11:32:01;;;;;;;3.10;2.67;;;19.50;75.40;;;;;;5079104;28;20475;-84
2022/05/04 11:34:38;;;;;;;3.15;2.85;;;19.60;72.60;;;;;;5070444;28;20032;-85
2022/05/04 11:37:05;;;;;;;3.65;3.33;;;19.70;74.20;;;;;;5056491;28;20063;-86
2022/05/04 11:39:31;;;;;;;4.75;3.45;;;19.70;78.50;;;;;;5072390;28;20030;-87
2022/05/04 11:41:59;;;;;;;3.63;3.28;;;19.70;76.80;;;;;;5060369;28;20546;-85
2022/05/04 11:44:26;;;;;;;4.15;3.40;;;19.70;77.00;;;;;;5069599;28;20032;-85
2022/05/04 11:46:56;;;;;;;6.18;3.00;;;19.70;74.30;;;;;;5051401;28;20032;-85
2022/05/04 11:49:28;;;;;;;3.40;3.10;;;19.70;74.50;;;;;;5053007;28;20123;-85
2022/05/04 11:51:56;;;;;;;3.63;3.33;;;19.70;73.80;;;;;;5070064;28;20093;-85
2022/05/04 11:54:22;;;;;;;5.93;3.90;;;19.60;72.30;;;;;;5072743;28;20051;-85
2022/05/04 11:56:48;;;;;;;4.00;3.53;;;19.60;75.50;;;;;;5088492;28;20028;-86
2022/05/04 11:59:14;;;;;;;4.22;3.47;;;19.60;77.30;;;;;;5066300;28;20067;-86
2022/05/04 12:01:40;;;;;;;4.55;3.83;;;19.70;76.50;;;;;;5033762;28;20060;-86
2022/05/04 12:04:07;;;;;;;4.28;3.88;;;19.70;74.50;;;;;;5073124;28;20055;-86
2022/05/04 12:06:37;;;;;;;4.90;3.78;;;19.70;77.30;;;;;;5056782;28;20119;-86
2022/05/04 12:09:03;;;;;;;9.57;3.90;;;19.70;72.80;;;;;;5088929;28;20039;-86
2022/05/04 12:11:30;;;;;;;3.83;3.28;;;19.80;77.50;;;;;;5073598;28;20046;-86
2022/05/04 12:13:59;;;;;;;3.40;3.10;;;19.80;76.20;;;;;;5069377;28;20032;-85
2022/05/04 12:16:25;;;;;;;4.53;2.83;;;20.00;72.90;;;;;;5070975;28;20039;-86
2022/05/04 12:18:51;;;;;;;2.83;2.63;;;20.00;73.90;;;;;;5071942;28;20177;-86
2022/05/04 12:21:21;;;;;;;2.67;2.47;;;20.20;77.40;;;;;;5081871;28;20039;-85
2022/05/04 12:23:50;;;;;;;3.38;3.08;;;20.40;75.90;;;;;;5062056;28;20028;-85
2022/05/04 12:26:17;;;;;;;3.67;3.38;;;20.50;72.90;;;;;;5078384;28;20430;-85
2022/05/04 12:33:08;;;;;;;3.53;3.22;;;20.60;70.50;;;;;;5060590;28;20082;-85
2022/05/04 12:34:16;;;;;;;3.35;2.88;;;20.60;70.20;;;;;;5075547;28;20040;-85
2022/05/04 12:36:45;;;;;;;4.25;3.60;;;20.50;73.70;;;;;;5052008;28;20147;-85
2022/05/04 12:39:10;;;;;;;3.55;2.95;;;20.40;70.70;;;;;;5054212;28;20043;-85
2022/05/04 12:41:37;;;;;;;4.88;4.40;;;20.20;71.10;;;;;;5089838;28;20024;-85
2022/05/04 12:44:06;;;;;;;5.63;4.45;;;20.10;73.30;;;;;;5071559;28;20059;-87
2022/05/04 12:46:32;;;;;;;6.35;4.80;;;19.90;77.10;;;;;;5025497;28;20050;-87
2022/05/04 12:48:59;;;;;;;7.57;4.10;;;19.70;76.80;;;;;;5088675;28;20024;-86
2022/05/04 12:51:28;;;;;;;8.35;3.95;;;19.30;77.10;;;;;;5055811;28;20044;-85
2022/05/04 12:53:54;;;;;;;6.22;4.10;;;19.00;86.60;;;;;;5065227;28;20024;-84
2022/05/04 12:59:05;;;;;;;3.95;3.25;;;18.20;92.30;;;;;;5039630;28;20036;-84
2022/05/04 13:01:36;;;;;;;3.72;3.20;;;17.70;92.20;;;;;;5052424;28;20036;-84
2022/05/04 13:04:02;;;;;;;4.72;3.22;;;17.40;92.90;;;;;;5056520;28;20418;-84
2022/05/04 13:06:28;;;;;;;4.72;4.03;;;17.20;94.00;;;;;;5053246;28;20032;-84
2022/05/04 13:08:55;;;;;;;5.63;4.00;;;17.00;94.60;;;;;;5048555;28;20130;-84
2022/05/04 13:11:24;;;;;;;4.75;3.80;;;17.00;94.90;;;;;;5084711;28;20088;-84
2022/05/04 13:13:50;;;;;;;5.25;4.20;;;16.90;96.40;;;;;;5053545;28;20032;-83
2022/05/04 13:16:18;;;;;;;7.40;4.03;;;16.80;99.90;;;;;;5083149;28;20021;-83
2022/05/04 13:18:44;;;;;;;4.72;3.70;;;16.80;99.90;;;;;;5038770;28;20043;-84
2022/05/04 13:21:10;;;;;;;5.32;3.85;;;16.90;99.90;;;;;;5038538;28;20127;-84
2022/05/04 13:23:36;;;;;;;4.45;3.40;;;16.90;99.90;;;;;;5080831;28;20028;-83
2022/05/04 13:26:03;;;;;;;3.65;3.30;;;16.90;99.90;;;;;;5089105;28;20024;-83